createdAt,value
2019-05-17T00:01:41.140Z,11.40
2019-05-17T00:04:11.601Z,11.30
2019-05-17T00:06:47.585Z,11.30
2019-05-17T00:09:17.739Z,11.30
2019-05-17T00:11:49.718Z,11.30
2019-05-17T00:14:20.547Z,11.20
2019-05-17T00:16:51.028Z,11.20
2019-05-17T00:19:21.721Z,11.20
2019-05-17T00:21:52.295Z,11.20
2019-05-17T00:24:23.242Z,11.20
2019-05-17T00:26:53.628Z,11.20
2019-05-17T00:29:26.330Z,11.20
2019-05-17T00:31:56.898Z,11.10
2019-05-17T00:34:27.283Z,11.10
2019-05-17T00:36:58.222Z,11.10
2019-05-17T00:39:28.729Z,11.10
2019-05-17T00:41:59.226Z,11.10
2019-05-17T00:44:29.697Z,11.10
2019-05-17T00:47:00.196Z,11.00
2019-05-17T00:49:30.942Z,11.10
2019-05-17T00:52:01.631Z,11.10
2019-05-17T00:54:32.532Z,11.10
2019-05-17T00:57:03.003Z,11.10
2019-05-17T00:59:36.868Z,11.00
2019-05-17T01:02:07.434Z,11.00
2019-05-17T01:04:38.656Z,11.00
2019-05-17T01:07:09.356Z,11.00
2019-05-17T01:09:40.750Z,11.00
2019-05-17T01:12:11.793Z,11.00
2019-05-17T01:14:42.282Z,11.00
2019-05-17T01:17:12.867Z,11.00
2019-05-17T01:19:43.695Z,11.00
2019-05-17T01:22:16.829Z,11.00
2019-05-17T01:24:47.108Z,11.10
2019-05-17T01:27:17.725Z,11.00
2019-05-17T01:29:48.320Z,11.10
2019-05-17T01:32:18.996Z,11.10
2019-05-17T01:34:51.056Z,11.00
2019-05-17T01:37:21.555Z,11.00
2019-05-17T01:39:52.647Z,10.90
2019-05-17T01:42:23.144Z,11.00
2019-05-17T01:44:53.632Z,10.90
2019-05-17T01:47:24.094Z,10.90
2019-05-17T01:49:57.437Z,10.90
2019-05-17T01:52:27.459Z,10.90
2019-05-17T01:54:58.154Z,10.90
2019-05-17T01:57:28.669Z,10.90
2019-05-17T01:59:59.675Z,10.80
2019-05-17T02:02:36.591Z,10.80
2019-05-17T02:05:07.675Z,10.80
2019-05-17T02:07:38.154Z,10.90
2019-05-17T02:10:09.474Z,11.00
2019-05-17T02:12:39.947Z,10.90
2019-05-17T02:15:11.549Z,10.90
2019-05-17T02:17:42.750Z,10.90
2019-05-17T02:20:13.907Z,11.00
2019-05-17T02:22:47.421Z,10.90
2019-05-17T02:25:18.019Z,11.00
2019-05-17T02:27:48.984Z,11.00
2019-05-17T02:30:23.187Z,10.90
2019-05-17T02:32:54.175Z,11.00
2019-05-17T02:35:25.125Z,11.00
2019-05-17T02:37:55.693Z,10.90
2019-05-17T02:40:26.500Z,10.90
2019-05-17T02:42:56.987Z,10.90
2019-05-17T02:45:28.076Z,11.00
2019-05-17T02:47:58.557Z,11.10
2019-05-17T02:50:32.762Z,11.10
2019-05-17T02:53:04.348Z,11.00
2019-05-17T02:55:34.080Z,11.10
2019-05-17T02:58:04.776Z,11.10
2019-05-17T03:00:35.275Z,11.10
2019-05-17T03:03:05.849Z,11.10
2019-05-17T03:05:36.251Z,11.20
2019-05-17T03:08:06.673Z,11.20
2019-05-17T03:10:37.467Z,11.20
2019-05-17T03:13:08.004Z,11.20
2019-05-17T03:15:38.591Z,11.30
2019-05-17T03:18:09.425Z,11.20
2019-05-17T03:20:42.937Z,11.30
2019-05-17T03:23:12.770Z,11.30
2019-05-17T03:25:44.095Z,11.30
2019-05-17T03:28:14.703Z,11.40
2019-05-17T03:30:46.814Z,11.40
2019-05-17T03:33:17.734Z,11.50
2019-05-17T03:35:48.648Z,11.40
2019-05-17T03:38:19.140Z,11.30
2019-05-17T03:41:13.899Z,11.40
2019-05-17T03:43:23.044Z,11.40
2019-05-17T03:45:53.847Z,11.40
2019-05-17T03:48:24.296Z,11.40
2019-05-17T03:50:54.780Z,11.40
2019-05-17T03:53:25.187Z,11.30
2019-05-17T03:55:55.687Z,11.40
2019-05-17T03:58:26.224Z,11.50
2019-05-17T04:00:56.791Z,11.50
2019-05-17T04:03:30.976Z,11.60
2019-05-17T04:05:59.312Z,11.60
2019-05-17T04:08:33.203Z,11.70
2019-05-17T04:11:19.700Z,11.70
2019-05-17T04:13:34.123Z,11.70
2019-05-17T04:16:08.855Z,11.70
2019-05-17T04:18:37.800Z,11.70
2019-05-17T04:21:08.209Z,11.70
2019-05-17T04:23:38.698Z,11.80
2019-05-17T04:26:09.168Z,11.90
2019-05-17T04:28:39.704Z,11.80
2019-05-17T04:31:13.211Z,11.90
2019-05-17T04:33:43.045Z,12.00
2019-05-17T04:36:14.103Z,12.00
2019-05-17T04:38:44.612Z,12.00
2019-05-17T04:41:14.998Z,12.00
2019-05-17T04:43:45.576Z,12.00
2019-05-17T04:46:16.074Z,12.10
2019-05-17T04:48:46.488Z,12.10
2019-05-17T04:51:17.093Z,12.20
2019-05-17T04:53:47.576Z,12.20
2019-05-17T04:56:18.072Z,12.20
2019-05-17T04:58:50.429Z,12.30
2019-05-17T05:01:23.558Z,12.30
2019-05-17T05:03:53.107Z,12.30
2019-05-17T05:06:23.575Z,12.30
2019-05-17T05:08:54.094Z,12.30
2019-05-17T05:11:24.585Z,12.30
2019-05-17T05:13:55.066Z,12.40
2019-05-17T05:16:25.576Z,12.50
2019-05-17T05:18:56.032Z,12.60
2019-05-17T05:21:26.444Z,12.60
2019-05-17T05:23:56.939Z,12.70
2019-05-17T05:26:27.460Z,12.70
2019-05-17T05:28:57.959Z,12.70
2019-05-17T05:31:28.555Z,12.70
2019-05-17T05:33:59.027Z,12.70
2019-05-17T05:36:29.523Z,12.70
2019-05-17T05:39:02.201Z,12.70
2019-05-17T05:41:32.224Z,12.70
2019-05-17T05:44:02.744Z,12.70
2019-05-17T05:46:33.230Z,12.80
2019-05-17T05:49:03.891Z,12.80
2019-05-17T05:51:34.394Z,12.80
2019-05-17T05:54:04.812Z,12.90
2019-05-17T05:56:35.270Z,12.80
2019-05-17T05:59:05.879Z,12.80
2019-05-17T06:01:36.359Z,12.80
2019-05-17T06:04:06.799Z,12.90
2019-05-17T06:06:37.179Z,12.90
2019-05-17T06:09:09.095Z,13.00
2019-05-17T06:11:41.565Z,13.00
2019-05-17T06:14:12.208Z,13.00
2019-05-17T06:16:42.905Z,13.00
2019-05-17T06:19:13.419Z,13.00
2019-05-17T06:21:43.989Z,13.00
2019-05-17T06:24:14.596Z,13.00
2019-05-17T06:26:45.191Z,13.00
2019-05-17T06:29:15.694Z,13.00
2019-05-17T06:31:46.123Z,13.10
2019-05-17T06:34:16.619Z,13.20
2019-05-17T06:36:47.123Z,13.30
2019-05-17T06:39:17.617Z,13.40
2019-05-17T06:41:48.159Z,13.40
2019-05-17T06:44:18.628Z,13.40
2019-05-17T06:46:51.750Z,13.50
2019-05-17T06:49:22.541Z,13.50
2019-05-17T06:51:53.043Z,13.50
2019-05-17T06:54:23.548Z,13.60
2019-05-17T06:56:54.611Z,13.70
2019-05-17T06:59:25.082Z,13.60
2019-05-17T07:01:55.966Z,13.70
2019-05-17T07:04:26.567Z,13.80
2019-05-17T07:07:14.655Z,13.80
2019-05-17T07:09:45.096Z,13.90
2019-05-17T07:12:15.996Z,14.00
2019-05-17T07:14:46.896Z,14.00
2019-05-17T07:17:19.588Z,14.00
2019-05-17T07:19:50.879Z,14.10
2019-05-17T07:22:22.191Z,14.10
2019-05-17T07:24:52.663Z,14.30
2019-05-17T07:27:37.587Z,14.30
2019-05-17T07:29:56.179Z,14.30
2019-05-17T07:32:26.603Z,14.40
2019-05-17T07:34:59.830Z,14.40
2019-05-17T07:37:30.364Z,14.50
2019-05-17T07:40:04.650Z,14.60
2019-05-17T07:42:33.090Z,14.70
2019-05-17T07:45:04.726Z,14.80
2019-05-17T07:47:35.149Z,14.80
2019-05-17T07:50:06.510Z,14.90
2019-05-17T07:52:39.557Z,14.90
2019-05-17T07:55:10.809Z,14.90
2019-05-17T07:57:41.538Z,14.90
2019-05-17T08:00:12.815Z,14.90
2019-05-17T08:02:43.215Z,14.90
2019-05-17T08:05:13.939Z,14.80
2019-05-17T08:07:44.403Z,14.90
2019-05-17T08:10:15.434Z,14.90
2019-05-17T08:12:45.820Z,14.90
2019-05-17T08:15:16.283Z,14.90
2019-05-17T08:17:47.166Z,15.00
2019-05-17T08:20:17.626Z,15.00
2019-05-17T08:22:50.192Z,15.00
2019-05-17T08:25:20.659Z,15.00
2019-05-17T08:27:52.043Z,15.10
2019-05-17T08:30:23.138Z,15.10
2019-05-17T08:32:53.604Z,15.10
2019-05-17T08:35:24.291Z,15.10
2019-05-17T08:37:54.699Z,15.20
2019-05-17T08:40:25.264Z,15.30
2019-05-17T08:42:55.748Z,15.40
2019-05-17T08:45:26.311Z,15.40
2019-05-17T08:47:56.751Z,15.30
2019-05-17T08:50:29.285Z,15.10
2019-05-17T08:52:59.959Z,15.00
2019-05-17T08:55:30.476Z,15.00
2019-05-17T08:58:01.291Z,15.00
2019-05-17T09:00:32.483Z,15.10
2019-05-17T09:03:02.951Z,15.10
2019-05-17T09:05:33.355Z,15.10
2019-05-17T09:08:03.822Z,15.00
2019-05-17T09:10:34.306Z,15.00
2019-05-17T09:13:04.819Z,14.90
2019-05-17T09:15:35.391Z,14.90
2019-05-17T09:18:05.966Z,14.80
2019-05-17T09:20:36.540Z,14.70
2019-05-17T09:23:09.476Z,14.70
2019-05-17T09:25:39.975Z,14.70
2019-05-17T09:28:10.959Z,14.80
2019-05-17T09:30:41.754Z,14.80
2019-05-17T09:33:12.761Z,14.90
2019-05-17T09:35:43.332Z,14.80
2019-05-17T09:38:13.819Z,14.80
2019-05-17T09:40:44.406Z,14.70
2019-05-17T09:43:16.781Z,14.80
2019-05-17T09:45:50.445Z,14.90
2019-05-17T09:48:21.586Z,14.90
2019-05-17T09:50:52.908Z,15.00
2019-05-17T09:53:23.559Z,15.00
2019-05-17T09:55:54.398Z,15.00
2019-05-17T09:58:24.890Z,14.90
2019-05-17T10:00:55.711Z,14.90
2019-05-17T10:03:26.566Z,14.90
2019-05-17T10:05:57.071Z,14.80
2019-05-17T10:08:27.719Z,14.80
2019-05-17T10:11:05.989Z,14.80
2019-05-17T10:13:31.032Z,14.80
2019-05-17T10:16:01.428Z,14.80
2019-05-17T10:18:32.961Z,14.70
2019-05-17T10:21:03.446Z,14.50
2019-05-17T10:23:34.527Z,14.50
2019-05-17T10:26:04.995Z,14.30
2019-05-17T10:28:35.535Z,14.30
2019-05-17T10:31:06.232Z,14.20
2019-05-17T10:33:37.012Z,14.20
2019-05-17T10:36:08.574Z,14.00
2019-05-17T10:38:39.628Z,14.00
2019-05-17T10:41:10.275Z,13.90
2019-05-17T11:01:30.599Z,13.40
2019-05-17T11:04:10.290Z,13.30
2019-05-17T11:06:40.413Z,13.20
2019-05-17T11:09:20.500Z,13.20
2019-05-17T11:18:35.115Z,13.00
2019-05-17T11:21:05.878Z,12.90
2019-05-17T11:23:36.812Z,12.90
2019-05-17T11:26:10.906Z,12.90
2019-05-17T11:28:44.387Z,12.80
2019-05-17T11:31:18.987Z,12.70
2019-05-17T11:33:52.211Z,12.70
2019-05-17T11:36:26.538Z,12.70
2019-05-17T11:38:58.725Z,12.70
2019-05-17T11:41:29.936Z,12.80
2019-05-17T11:44:00.465Z,12.80
2019-05-17T11:46:36.183Z,12.80
2019-05-17T11:49:03.070Z,12.90
2019-05-17T11:51:33.739Z,12.90
2019-05-17T11:54:04.202Z,12.80
2019-05-17T11:56:34.899Z,12.60
2019-05-17T11:59:05.747Z,12.70
2019-05-17T12:01:36.771Z,12.80
2019-05-17T12:04:07.560Z,12.80
2019-05-17T12:06:38.166Z,12.80
2019-05-17T12:09:08.789Z,12.80
2019-05-17T12:11:39.819Z,12.70
2019-05-17T12:14:10.674Z,12.70
2019-05-17T12:16:41.166Z,12.60
2019-05-17T12:19:11.662Z,12.70
2019-05-17T12:21:42.320Z,12.80
2019-05-17T12:24:12.720Z,12.80
2019-05-17T12:26:43.471Z,12.80
2019-05-17T12:29:14.419Z,12.70
2019-05-17T12:31:45.025Z,12.80
2019-05-17T12:34:15.977Z,12.80
2019-05-17T12:36:46.463Z,12.70
2019-05-17T12:39:17.627Z,12.70
2019-05-17T12:41:48.202Z,12.70
2019-05-17T12:44:19.593Z,12.70
2019-05-17T12:46:50.125Z,12.60
2019-05-17T12:49:20.674Z,12.60
2019-05-17T12:51:51.684Z,12.50
2019-05-17T12:54:22.821Z,12.60
2019-05-17T12:56:53.810Z,12.60
2019-05-17T12:59:24.298Z,12.60
2019-05-17T13:01:54.863Z,12.60
2019-05-17T13:04:25.392Z,12.60
2019-05-17T13:06:55.905Z,12.70
2019-05-17T13:09:26.497Z,12.70
2019-05-17T13:11:56.879Z,12.70
2019-05-17T13:14:27.318Z,12.80
2019-05-17T13:16:57.706Z,12.80
2019-05-17T13:19:28.150Z,12.80
2019-05-17T13:21:59.075Z,12.80
2019-05-17T13:24:30.639Z,12.70
2019-05-17T13:27:01.394Z,12.60
2019-05-17T13:29:31.901Z,12.50
2019-05-17T13:32:02.455Z,12.40
2019-05-17T13:34:32.938Z,12.30
2019-05-17T13:37:03.827Z,12.20
2019-05-17T13:39:34.680Z,12.20
2019-05-17T13:42:05.414Z,12.20
2019-05-17T13:44:36.001Z,12.20
2019-05-17T13:47:07.091Z,12.20
2019-05-17T13:49:38.341Z,12.30
2019-05-17T13:52:08.909Z,12.20
2019-05-17T13:54:39.509Z,12.10
2019-05-17T13:57:11.501Z,12.00
2019-05-17T13:59:42.521Z,12.00
2019-05-17T14:02:13.019Z,11.90
2019-05-17T14:04:43.893Z,11.80
2019-05-17T14:07:14.723Z,11.80
2019-05-17T14:09:45.312Z,11.90
2019-05-17T14:12:15.703Z,11.90
2019-05-17T14:14:46.121Z,11.80
2019-05-17T14:17:16.627Z,11.80
2019-05-17T14:19:47.237Z,11.80
2019-05-17T14:22:18.436Z,11.80
2019-05-17T14:24:49.016Z,11.90
2019-05-17T14:27:19.635Z,11.90
2019-05-17T14:29:50.106Z,11.90
2019-05-17T14:32:20.687Z,11.90
2019-05-17T14:37:28.159Z,12.00
2019-05-17T14:39:59.223Z,11.90
2019-05-17T14:42:30.498Z,11.80
2019-05-17T14:45:00.944Z,11.80
2019-05-17T14:47:31.503Z,11.80
2019-05-17T14:50:02.014Z,11.80
2019-05-17T14:52:33.349Z,11.80
2019-05-17T14:55:04.014Z,11.80
2019-05-17T14:57:34.885Z,11.80
2019-05-17T15:00:07.469Z,11.70
2019-05-17T15:02:38.480Z,11.60
2019-05-17T15:05:09.054Z,11.60
2019-05-17T15:07:39.487Z,11.60
2019-05-17T15:10:10.171Z,11.60
2019-05-17T15:12:40.603Z,11.60
2019-05-17T15:15:11.507Z,11.50
2019-05-17T15:17:42.259Z,11.50
2019-05-17T15:20:13.166Z,11.60
2019-05-17T15:22:43.766Z,11.50
2019-05-17T15:25:14.323Z,11.50
2019-05-17T15:27:45.596Z,11.40
2019-05-17T15:30:16.431Z,11.40
2019-05-17T15:32:46.907Z,11.50
2019-05-17T15:35:17.799Z,11.40
2019-05-17T15:37:48.770Z,11.40
2019-05-17T15:40:19.743Z,11.40
2019-05-17T15:42:50.267Z,11.40
2019-05-17T15:45:20.755Z,11.40
2019-05-17T15:47:51.277Z,11.40
2019-05-17T15:50:21.983Z,11.40
2019-05-17T15:52:52.372Z,11.40
2019-05-17T15:55:22.771Z,11.40
2019-05-17T15:57:54.063Z,11.30
2019-05-17T16:00:26.825Z,11.40
2019-05-17T16:02:57.233Z,11.50
2019-05-17T16:05:27.812Z,11.50
2019-05-17T16:07:58.307Z,11.50
2019-05-17T16:10:28.805Z,11.40
2019-05-17T16:13:02.779Z,11.40
2019-05-17T16:15:31.651Z,11.40
2019-05-17T16:18:02.338Z,11.50
2019-05-17T16:20:33.388Z,11.50
2019-05-17T16:23:04.215Z,11.50
2019-05-17T16:25:34.983Z,11.50
2019-05-17T16:28:05.453Z,11.50
2019-05-17T16:30:35.965Z,11.60
2019-05-17T16:33:06.547Z,11.50
2019-05-17T16:35:36.985Z,11.60
2019-05-17T16:38:10.368Z,11.50
2019-05-17T16:40:40.862Z,11.50
2019-05-17T16:43:17.989Z,11.50
2019-05-17T16:45:43.409Z,11.50
2019-05-17T16:48:13.867Z,11.50
2019-05-17T16:50:44.802Z,11.50
2019-05-17T16:53:15.267Z,11.60
2019-05-17T16:55:45.847Z,11.60
2019-05-17T16:58:16.550Z,11.70
2019-05-17T17:00:47.760Z,11.60
2019-05-17T17:03:18.363Z,11.50
2019-05-17T17:05:48.927Z,11.50
2019-05-17T17:08:19.340Z,11.50
2019-05-17T17:10:49.808Z,11.40
2019-05-17T17:13:32.457Z,11.40
2019-05-17T17:15:52.416Z,11.30
2019-05-17T17:18:23.291Z,11.30
2019-05-17T17:20:54.480Z,11.30
2019-05-17T17:23:25.071Z,11.30
2019-05-17T17:25:55.543Z,11.30
2019-05-17T17:28:26.500Z,11.30
2019-05-17T17:30:57.043Z,11.30
2019-05-17T17:33:27.578Z,11.40
2019-05-17T17:35:58.634Z,11.30
2019-05-17T17:38:30.240Z,11.30
2019-05-17T17:41:01.162Z,11.30
2019-05-17T17:43:31.645Z,11.30
2019-05-17T17:46:02.961Z,11.30
2019-05-17T17:48:33.579Z,11.30
2019-05-17T17:51:03.977Z,11.30
2019-05-17T17:53:34.486Z,11.30
2019-05-17T17:56:05.954Z,11.30
2019-05-17T17:58:36.408Z,11.30
2019-05-17T18:01:08.186Z,11.20
2019-05-17T18:03:38.651Z,11.20
2019-05-17T18:06:09.161Z,11.10
2019-05-17T18:08:41.143Z,11.10
2019-05-17T18:11:11.911Z,11.10
2019-05-17T18:13:42.521Z,11.10
2019-05-17T18:16:12.916Z,11.10
2019-05-17T18:18:45.184Z,11.10
2019-05-17T18:21:17.532Z,11.10
2019-05-17T18:23:51.773Z,11.10
2019-05-17T18:26:24.141Z,11.00
2019-05-17T18:28:57.192Z,11.10
2019-05-17T18:31:29.826Z,11.10
2019-05-17T18:34:03.952Z,11.10
2019-05-17T18:36:38.582Z,11.00
2019-05-17T18:39:14.115Z,11.00
2019-05-17T18:41:46.191Z,11.00
2019-05-17T18:44:27.189Z,11.00
2019-05-17T18:46:52.722Z,11.00
2019-05-17T18:49:25.440Z,11.00
2019-05-17T18:51:58.503Z,11.00
2019-05-17T18:54:30.076Z,11.00
2019-05-17T18:57:01.723Z,11.10
2019-05-17T18:59:34.066Z,11.20
2019-05-17T19:02:04.523Z,11.10
2019-05-17T19:04:34.938Z,11.20
2019-05-17T19:07:05.730Z,11.00
2019-05-17T19:09:36.259Z,11.00
2019-05-17T19:12:07.079Z,11.00
2019-05-17T19:14:43.083Z,11.10
2019-05-17T19:17:10.200Z,11.20
2019-05-17T19:19:41.700Z,11.20
2019-05-17T19:22:12.550Z,11.20
2019-05-17T19:24:45.132Z,11.20
2019-05-17T19:27:19.398Z,11.20
2019-05-17T19:29:54.056Z,11.30
2019-05-17T19:32:28.769Z,11.40
2019-05-17T19:35:01.415Z,11.40
2019-05-17T19:37:34.223Z,11.40
2019-05-17T19:40:06.780Z,11.30
2019-05-17T19:42:37.885Z,11.20
2019-05-17T19:45:12.286Z,11.20
2019-05-17T19:47:43.243Z,11.20
2019-05-17T19:50:14.893Z,11.20
2019-05-17T19:52:45.403Z,11.30
2019-05-17T19:55:16.596Z,11.30
2019-05-17T19:57:48.754Z,11.30
2019-05-17T20:00:20.332Z,11.20
2019-05-17T20:02:51.938Z,11.20
2019-05-17T20:05:23.278Z,11.30
2019-05-17T20:07:54.172Z,11.30
2019-05-17T20:10:25.967Z,11.30
2019-05-17T20:12:56.978Z,11.20
2019-05-17T20:15:34.655Z,11.20
2019-05-17T20:17:59.845Z,11.20
2019-05-17T20:20:30.898Z,11.20
2019-05-17T20:23:01.302Z,11.30
2019-05-17T20:25:31.767Z,11.30
2019-05-17T20:28:02.277Z,11.30
2019-05-17T20:30:32.748Z,11.40
2019-05-17T20:33:03.247Z,11.40
2019-05-17T20:35:33.703Z,11.40
2019-05-17T20:38:04.264Z,11.40
2019-05-17T20:40:34.850Z,11.50
2019-05-17T20:43:05.275Z,11.40
2019-05-17T20:45:35.754Z,11.40
2019-05-17T20:48:06.379Z,11.40
2019-05-17T20:50:37.288Z,11.30
2019-05-17T20:53:18.450Z,11.30
2019-05-17T20:55:40.799Z,11.20
2019-05-17T20:58:11.291Z,11.20
2019-05-17T21:00:41.835Z,11.30
2019-05-17T21:03:13.926Z,11.20
2019-05-17T21:05:45.099Z,11.20
2019-05-17T21:08:15.748Z,11.20
2019-05-17T21:10:46.363Z,11.00
2019-05-17T21:13:17.263Z,11.00
2019-05-17T21:15:48.333Z,11.10
2019-05-17T21:18:19.340Z,11.10
2019-05-17T21:20:49.811Z,11.10
2019-05-17T21:23:20.312Z,11.10
2019-05-17T21:25:50.839Z,11.20
2019-05-17T21:28:21.413Z,11.20
2019-05-17T21:30:51.966Z,11.20
2019-05-17T21:33:22.365Z,11.10
2019-05-17T21:35:52.790Z,11.10
2019-05-17T21:38:23.892Z,11.10
2019-05-17T21:40:55.399Z,11.10
2019-05-17T21:43:25.818Z,11.00
2019-05-17T21:46:04.040Z,11.10
2019-05-17T21:48:33.443Z,11.00
2019-05-17T21:51:04.304Z,11.00
2019-05-17T21:53:35.342Z,11.10
2019-05-17T21:56:05.761Z,11.10
2019-05-17T21:58:36.451Z,11.10
2019-05-17T22:01:14.033Z,11.20
2019-05-17T22:03:44.906Z,11.30
2019-05-17T22:06:15.408Z,11.40
2019-05-17T22:08:46.496Z,11.40
2019-05-17T22:11:17.186Z,11.50
2019-05-17T22:13:47.679Z,11.50
2019-05-17T22:16:19.893Z,11.50
2019-05-17T22:18:50.228Z,11.50
2019-05-17T22:21:20.723Z,11.40
2019-05-17T22:23:51.147Z,11.50
2019-05-17T22:26:21.631Z,11.50
2019-05-17T22:28:52.151Z,11.50
2019-05-17T22:31:23.251Z,11.60
2019-05-17T22:33:53.810Z,11.50
2019-05-17T22:36:24.395Z,11.50
2019-05-17T22:38:55.661Z,11.60
2019-05-17T22:41:26.146Z,11.50
2019-05-17T22:43:56.641Z,11.60
2019-05-17T22:46:35.652Z,11.60
2019-05-17T22:48:59.424Z,11.50
2019-05-17T22:51:29.987Z,11.50
2019-05-17T22:54:00.478Z,11.60
2019-05-17T22:56:30.967Z,11.60
2019-05-17T22:59:01.356Z,11.60
2019-05-17T23:01:31.764Z,11.60
2019-05-17T23:04:02.335Z,11.60
2019-05-17T23:06:32.724Z,11.60
2019-05-17T23:09:03.759Z,11.70
2019-05-17T23:11:34.247Z,11.70
2019-05-17T23:14:04.759Z,11.80
2019-05-17T23:16:50.246Z,11.80
2019-05-17T23:19:08.024Z,11.90
2019-05-17T23:21:39.351Z,11.90
2019-05-17T23:24:09.766Z,11.90
2019-05-17T23:26:40.267Z,11.90
2019-05-17T23:29:10.876Z,11.80
2019-05-17T23:31:41.463Z,11.80
2019-05-17T23:34:12.354Z,11.80
2019-05-17T23:36:42.987Z,11.90
2019-05-17T23:39:13.561Z,11.90
2019-05-17T23:41:44.028Z,11.90
2019-05-17T23:44:14.515Z,11.90
2019-05-17T23:46:45.051Z,11.80
2019-05-17T23:49:15.529Z,11.80
2019-05-17T23:51:45.950Z,11.80
2019-05-17T23:54:16.358Z,11.70
2019-05-17T23:56:46.762Z,11.70
2019-05-17T23:59:17.335Z,11.70
